KBCT/BCT METAR and TAF weather

Enter ICAO airport designator
Station Type Date Time Source
KBCT METAR 2021/02/28 02:53 UTC NOAA

KBCT 280253Z 12008G16KT 10SM SCT020 25/21 A3022


Station Type Date Time Source
KBCT Decoded METAR 2021/02/28 02:53 UTC NOAA

Boca Raton, Boca Raton Airport, FL, United States (KBCT) 26-22-43N 080-06-28W
Feb 27, 2021 - 09:53 PM EST / 2021.02.28 0253 UTC
Wind: from the ESE (120 degrees) at 9 MPH (8 KT) gusting to 18 MPH (16 KT):0
Visibility: 10 mile(s):0
Sky conditions: partly cloudy
Temperature: 77 F (25 C)
Dew Point: 69 F (21 C)
Relative Humidity: 78%
Pressure (altimeter): 30.22 in. Hg (1023 hPa)
ob: KBCT 280253Z 12008G16KT 10SM SCT020 25/21 A3022
cycle: 3

Station Type Date Time Source
KBCT TAF 2020/02/03 18:20 UTC NOAA

TAF KBCT 031720Z 0318/0418 12005KT P6SM SKC
FM040000 VRB03KT P6SM SKC
FM041400 16011KT P6SM FEW030

Example: see airport list